createdAt,value
2018-09-13T00:00:01.124Z,17
2018-09-13T00:02:01.091Z,16
2018-09-13T00:04:01.092Z,15
2018-09-13T00:06:01.139Z,14
2018-09-13T00:07:01.094Z,16
2018-09-13T00:09:01.099Z,15
2018-09-13T00:10:01.121Z,16
2018-09-13T00:11:01.096Z,18
2018-09-13T00:13:01.096Z,17
2018-09-13T00:14:01.102Z,19
2018-09-13T00:15:01.125Z,19
2018-09-13T00:16:01.095Z,18
2018-09-13T00:17:01.094Z,17
2018-09-13T00:18:01.094Z,16
2018-09-13T00:20:01.139Z,15
2018-09-13T00:21:01.095Z,16
2018-09-13T00:23:01.101Z,19
2018-09-13T00:26:01.124Z,18
2018-09-13T00:27:01.098Z,19
2018-09-13T00:28:01.099Z,17
2018-09-13T00:29:01.120Z,18
2018-09-13T00:30:01.131Z,17
2018-09-13T00:31:01.096Z,18
2018-09-13T00:32:01.095Z,16
2018-09-13T00:33:01.096Z,17
2018-09-13T00:34:01.096Z,16
2018-09-13T00:35:01.125Z,18
2018-09-13T00:36:01.100Z,17
2018-09-13T00:39:01.080Z,18
2018-09-13T00:40:01.117Z,17
2018-09-13T00:41:01.085Z,16
2018-09-13T00:43:01.088Z,17
2018-09-13T00:44:01.084Z,16
2018-09-13T00:45:01.081Z,16
2018-09-13T00:48:06.089Z,15
2018-09-13T00:49:01.085Z,13
2018-09-13T00:50:01.085Z,15
2018-09-13T00:51:01.080Z,18
2018-09-13T00:52:01.081Z,17
2018-09-13T00:53:02.113Z,18
2018-09-13T00:54:01.082Z,20
2018-09-13T00:55:01.084Z,18
2018-09-13T00:56:01.082Z,17
2018-09-13T00:57:01.183Z,16
2018-09-13T00:59:01.145Z,15
2018-09-13T01:00:01.081Z,16
2018-09-13T01:01:01.082Z,17
2018-09-13T01:02:01.083Z,18
2018-09-13T01:04:01.088Z,17
2018-09-13T01:06:01.083Z,16
2018-09-13T01:07:01.083Z,17
2018-09-13T01:08:01.082Z,19
2018-09-13T01:11:01.084Z,16
2018-09-13T01:12:01.117Z,17
2018-09-13T01:13:01.081Z,14
2018-09-13T01:14:01.084Z,13
2018-09-13T01:15:01.092Z,13
2018-09-13T01:16:01.087Z,15
2018-09-13T01:17:01.083Z,12
2018-09-13T01:18:01.083Z,14
2018-09-13T01:19:01.083Z,15
2018-09-13T01:22:01.048Z,16
2018-09-13T01:24:01.083Z,17
2018-09-13T01:25:01.082Z,18
2018-09-13T01:27:01.082Z,19
2018-09-13T01:28:01.084Z,18
2018-09-13T01:30:01.088Z,17
2018-09-13T01:32:01.082Z,16
2018-09-13T01:33:01.083Z,17
2018-09-13T01:34:01.084Z,19
2018-09-13T01:35:01.087Z,18
2018-09-13T01:36:01.084Z,17
2018-09-13T01:37:01.086Z,19
2018-09-13T01:38:01.088Z,20
2018-09-13T01:39:01.085Z,17
2018-09-13T01:40:01.084Z,18
2018-09-13T01:41:01.084Z,19
2018-09-13T01:43:01.090Z,17
2018-09-13T01:44:01.088Z,19
2018-09-13T01:45:01.085Z,19
2018-09-13T01:46:01.090Z,17
2018-09-13T01:47:01.055Z,16
2018-09-13T01:48:01.085Z,17
2018-09-13T01:49:01.054Z,15
2018-09-13T01:50:01.094Z,14
2018-09-13T01:52:06.089Z,12
2018-09-13T01:54:01.086Z,13
2018-09-13T01:55:01.116Z,15
2018-09-13T01:56:01.090Z,14
2018-09-13T01:57:01.090Z,15
2018-09-13T01:58:01.089Z,14
2018-09-13T02:00:01.117Z,14
2018-09-13T02:01:01.090Z,16
2018-09-13T02:02:02.119Z,18
2018-09-13T02:06:01.119Z,16
2018-09-13T02:07:02.116Z,15
2018-09-13T02:08:01.091Z,16
2018-09-13T02:10:01.120Z,15
2018-09-13T02:11:01.093Z,17
2018-09-13T02:15:01.122Z,17
2018-09-13T02:16:01.093Z,18
2018-09-13T02:18:01.090Z,19
2018-09-13T02:19:01.089Z,18
2018-09-13T02:21:01.125Z,16
2018-09-13T02:22:01.091Z,17
2018-09-13T02:23:01.094Z,15
2018-09-13T02:24:01.120Z,17
2018-09-13T02:25:01.090Z,16
2018-09-13T02:29:01.116Z,15
2018-09-13T02:30:01.092Z,16
2018-09-13T02:31:02.116Z,15
2018-09-13T02:32:01.091Z,16
2018-09-13T02:33:01.092Z,15
2018-09-13T02:34:01.124Z,17
2018-09-13T02:37:02.116Z,15
2018-09-13T02:38:01.110Z,16
2018-09-13T02:39:01.129Z,14
2018-09-13T02:40:01.113Z,15
2018-09-13T02:41:01.062Z,17
2018-09-13T02:44:01.117Z,18
2018-09-13T02:45:01.140Z,17
2018-09-13T02:46:01.059Z,16
2018-09-13T02:47:01.094Z,15
2018-09-13T02:49:01.110Z,16
2018-09-13T02:50:01.142Z,15
2018-09-13T02:51:01.090Z,16
2018-09-13T02:53:01.090Z,17
2018-09-13T02:54:01.093Z,18
2018-09-13T02:55:01.125Z,20
2018-09-13T02:56:01.095Z,18
2018-09-13T02:59:01.103Z,17
2018-09-13T03:00:01.096Z,16
2018-09-13T03:03:01.091Z,14
2018-09-13T03:04:01.093Z,15
2018-09-13T03:06:01.128Z,16
2018-09-13T03:07:01.092Z,17
2018-09-13T03:08:01.091Z,18
2018-09-13T03:09:01.092Z,17
2018-09-13T03:10:06.101Z,18
2018-09-13T03:11:01.128Z,17
2018-09-13T03:15:01.079Z,18
2018-09-13T03:18:01.106Z,17
2018-09-13T03:19:01.078Z,15
2018-09-13T03:20:01.075Z,14
2018-09-13T03:23:01.115Z,15
2018-09-13T03:24:01.076Z,16
2018-09-13T03:25:02.109Z,15
2018-09-13T03:26:01.078Z,14
2018-09-13T03:27:01.050Z,15
2018-09-13T03:30:01.107Z,16
2018-09-13T03:31:01.080Z,18
2018-09-13T03:32:06.049Z,17
2018-09-13T03:33:01.076Z,18
2018-09-13T03:36:01.115Z,16
2018-09-13T03:38:01.084Z,15
2018-09-13T03:39:01.081Z,16
2018-09-13T03:40:01.085Z,15
2018-09-13T03:42:01.135Z,14
2018-09-13T03:43:01.087Z,15
2018-09-13T03:45:01.082Z,16
2018-09-13T03:48:01.107Z,17
2018-09-13T03:50:01.086Z,16
2018-09-13T03:51:01.083Z,14
2018-09-13T03:52:01.107Z,15
2018-09-13T03:53:01.086Z,14
2018-09-13T03:54:01.093Z,12
2018-09-13T03:55:01.093Z,13
2018-09-13T03:56:01.094Z,16
2018-09-13T03:59:01.084Z,17
2018-09-13T04:00:01.088Z,18
2018-09-13T04:01:01.082Z,16
2018-09-13T04:02:01.110Z,18
2018-09-13T04:03:06.090Z,19
2018-09-13T04:05:01.083Z,18
2018-09-13T04:06:02.142Z,19
2018-09-13T04:07:01.083Z,16
2018-09-13T04:09:01.086Z,17
2018-09-13T04:10:01.085Z,18
2018-09-13T04:12:01.085Z,19
2018-09-13T04:14:01.092Z,18
2018-09-13T04:15:01.087Z,16
2018-09-13T04:18:01.083Z,14
2018-09-13T04:19:01.084Z,15
2018-09-13T04:20:01.084Z,16
2018-09-13T04:23:01.085Z,19
2018-09-13T04:24:01.084Z,20
2018-09-13T04:25:01.090Z,21
2018-09-13T04:26:01.106Z,20
2018-09-13T04:27:01.127Z,21
2018-09-13T04:29:01.086Z,20
2018-09-13T04:30:01.087Z,19
2018-09-13T04:31:01.086Z,18
2018-09-13T04:32:01.087Z,16
2018-09-13T04:33:01.083Z,15
2018-09-13T04:35:01.092Z,14
2018-09-13T04:36:02.182Z,15
2018-09-13T04:39:01.087Z,16
2018-09-13T04:40:01.086Z,15
2018-09-13T04:41:01.064Z,16
2018-09-13T04:42:01.092Z,17
2018-09-13T04:43:06.091Z,19
2018-09-13T04:44:01.085Z,18
2018-09-13T04:45:01.086Z,19
2018-09-13T04:46:01.088Z,18
2018-09-13T04:48:01.120Z,16
2018-09-13T04:51:01.095Z,17
2018-09-13T04:55:06.099Z,18
2018-09-13T04:56:01.095Z,16
2018-09-13T04:57:01.097Z,14
2018-09-13T04:58:01.091Z,15
2018-09-13T04:59:01.094Z,16
2018-09-13T05:00:06.100Z,15
2018-09-13T05:01:01.096Z,18
2018-09-13T05:03:01.059Z,17
2018-09-13T05:04:01.091Z,18
2018-09-13T05:07:01.090Z,19
2018-09-13T05:10:01.099Z,18
2018-09-13T05:11:06.101Z,16
2018-09-13T05:12:01.095Z,17
2018-09-13T05:13:01.095Z,16
2018-09-13T05:14:01.089Z,17
2018-09-13T05:15:02.120Z,17
2018-09-13T05:16:01.100Z,16
2018-09-13T05:17:01.094Z,15
2018-09-13T05:18:01.064Z,14
2018-09-13T05:19:01.091Z,13
2018-09-13T05:20:01.103Z,15
2018-09-13T05:21:01.104Z,17
2018-09-13T05:24:01.109Z,18
2018-09-13T05:25:01.079Z,20
2018-09-13T05:26:01.078Z,19
2018-09-13T05:27:01.078Z,18
2018-09-13T05:29:06.085Z,19
2018-09-13T05:30:01.085Z,18
2018-09-13T05:33:01.076Z,19
2018-09-13T05:34:01.080Z,18
2018-09-13T05:36:01.079Z,17
2018-09-13T05:37:01.080Z,18
2018-09-13T05:39:01.080Z,16
2018-09-13T05:41:01.080Z,17
2018-09-13T05:42:01.079Z,16
2018-09-13T05:43:01.046Z,15
2018-09-13T05:44:01.080Z,18
2018-09-13T05:45:01.098Z,19
2018-09-13T05:46:01.082Z,20
2018-09-13T05:49:01.081Z,17
2018-09-13T05:50:01.081Z,16
2018-09-13T05:53:01.081Z,17
2018-09-13T05:54:01.082Z,16
2018-09-13T05:55:01.148Z,17
2018-09-13T05:56:01.050Z,16
2018-09-13T05:57:01.083Z,15
2018-09-13T06:00:01.088Z,14
2018-09-13T06:01:01.121Z,13
2018-09-13T06:02:06.086Z,15
2018-09-13T06:03:01.091Z,14
2018-09-13T06:04:01.086Z,16
2018-09-13T06:05:01.055Z,17
2018-09-13T06:07:06.091Z,16
2018-09-13T06:09:01.111Z,14
2018-09-13T06:10:01.088Z,15
2018-09-13T06:11:01.092Z,14
2018-09-13T06:13:02.111Z,15
2018-09-13T06:14:01.117Z,17
2018-09-13T06:15:01.091Z,17
2018-09-13T06:16:01.071Z,18
2018-09-13T06:20:01.098Z,17
2018-09-13T06:21:01.090Z,19
2018-09-13T06:22:01.094Z,20
2018-09-13T06:23:01.095Z,19
2018-09-13T06:25:01.090Z,20
2018-09-13T06:26:01.138Z,17
2018-09-13T06:28:01.094Z,15
2018-09-13T06:29:01.124Z,16
2018-09-13T06:30:01.093Z,14
2018-09-13T06:32:01.063Z,15
2018-09-13T06:33:01.128Z,18
2018-09-13T06:34:01.070Z,17
2018-09-13T06:35:06.101Z,19
2018-09-13T06:37:01.097Z,17
2018-09-13T06:38:11.151Z,16
2018-09-13T06:39:01.097Z,17
2018-09-13T06:40:01.096Z,16
2018-09-13T06:42:01.078Z,17
2018-09-13T06:43:01.079Z,18
2018-09-13T06:45:01.083Z,16
2018-09-13T06:48:01.088Z,14
2018-09-13T06:50:01.081Z,15
2018-09-13T06:54:01.119Z,17
2018-09-13T06:55:01.084Z,16
2018-09-13T06:56:06.090Z,18
2018-09-13T06:58:01.117Z,20
2018-09-13T06:59:01.087Z,17
2018-09-13T07:00:01.052Z,18
2018-09-13T07:01:02.105Z,19
2018-09-13T07:02:01.083Z,18
2018-09-13T07:03:01.083Z,17
2018-09-13T07:04:01.051Z,20
2018-09-13T07:05:01.049Z,22
2018-09-13T07:06:02.107Z,20
2018-09-13T07:07:01.050Z,21
2018-09-13T07:08:01.080Z,22
2018-09-13T07:09:01.111Z,20
2018-09-13T07:10:01.080Z,17
2018-09-13T07:11:01.049Z,18
2018-09-13T07:13:01.073Z,17
2018-09-13T07:14:01.081Z,20
2018-09-13T07:15:01.050Z,20
2018-09-13T07:17:02.108Z,19
2018-09-13T07:19:01.112Z,17
2018-09-13T07:20:01.083Z,18
2018-09-13T07:22:01.089Z,17
2018-09-13T07:24:01.108Z,16
2018-09-13T07:25:01.084Z,17
2018-09-13T07:26:01.082Z,16
2018-09-13T07:27:01.060Z,15
2018-09-13T07:28:01.106Z,16
2018-09-13T07:29:01.050Z,18
2018-09-13T07:30:01.083Z,17
2018-09-13T07:31:01.146Z,19
2018-09-13T07:32:01.129Z,20
2018-09-13T07:33:01.102Z,18
2018-09-13T07:34:01.082Z,17
2018-09-13T07:36:01.091Z,14
2018-09-13T07:38:01.086Z,15
2018-09-13T07:39:01.083Z,16
2018-09-13T07:40:01.084Z,17
2018-09-13T07:41:01.087Z,18
2018-09-13T07:42:01.054Z,20
2018-09-13T07:43:01.053Z,19
2018-09-13T07:44:01.057Z,18
2018-09-13T07:45:01.088Z,16
2018-09-13T07:47:01.086Z,15
2018-09-13T07:48:01.085Z,16
2018-09-13T07:50:01.091Z,17
2018-09-13T07:51:01.058Z,18
2018-09-13T07:52:01.112Z,17
2018-09-13T07:53:01.055Z,19
2018-09-13T07:56:01.087Z,18
2018-09-13T07:57:01.128Z,17
2018-09-13T07:58:01.094Z,16
2018-09-13T07:59:01.087Z,15
2018-09-13T08:00:01.089Z,16
2018-09-13T08:01:01.087Z,18
2018-09-13T08:02:01.113Z,19
2018-09-13T08:03:01.087Z,17
2018-09-13T08:05:01.140Z,16
2018-09-13T08:06:01.089Z,15
2018-09-13T08:07:01.137Z,14
2018-09-13T08:08:01.089Z,15
2018-09-13T08:09:01.089Z,16
2018-09-13T08:10:01.093Z,18
2018-09-13T08:13:01.091Z,17
2018-09-13T08:14:01.092Z,16
2018-09-13T08:15:01.074Z,16
2018-09-13T08:16:01.207Z,15
2018-09-13T08:17:01.130Z,16
2018-09-13T08:19:01.094Z,15
2018-09-13T08:20:01.092Z,14
2018-09-13T08:21:01.093Z,18
2018-09-13T08:22:01.161Z,17
2018-09-13T08:25:01.085Z,19
2018-09-13T08:27:01.170Z,15
2018-09-13T08:28:01.081Z,14
2018-09-13T08:30:01.086Z,13
2018-09-13T08:31:02.104Z,14
2018-09-13T08:32:01.088Z,17
2018-09-13T08:33:01.080Z,18
2018-09-13T08:34:01.080Z,17
2018-09-13T08:35:01.186Z,16
2018-09-13T08:36:01.083Z,14
2018-09-13T08:37:01.101Z,11
2018-09-13T08:38:01.086Z,12
2018-09-13T08:39:01.052Z,11
2018-09-13T08:40:01.135Z,13
2018-09-13T08:41:01.085Z,15
2018-09-13T08:42:01.088Z,16
2018-09-13T08:43:01.153Z,15
2018-09-13T08:44:01.087Z,16
2018-09-13T08:45:01.091Z,16
2018-09-13T08:47:01.085Z,15
2018-09-13T08:48:01.060Z,17
2018-09-13T08:49:01.087Z,16
2018-09-13T08:50:01.087Z,17
2018-09-13T08:51:01.059Z,16
2018-09-13T08:52:01.158Z,15
2018-09-13T08:53:01.086Z,14
2018-09-13T08:57:01.132Z,15
2018-09-13T08:59:01.088Z,16
2018-09-13T09:00:01.092Z,14
2018-09-13T09:01:01.117Z,13
2018-09-13T09:02:01.087Z,14
2018-09-13T09:03:01.063Z,16
2018-09-13T09:04:01.055Z,14
2018-09-13T09:05:01.094Z,15
2018-09-13T09:09:01.088Z,16
2018-09-13T09:14:01.059Z,17
2018-09-13T09:15:01.099Z,15
2018-09-13T09:16:01.119Z,16
2018-09-13T09:17:01.095Z,18
2018-09-13T09:18:01.111Z,20
2018-09-13T09:19:01.061Z,18
2018-09-13T09:20:01.095Z,20
2018-09-13T09:21:01.120Z,21
2018-09-13T09:22:01.093Z,19
2018-09-13T09:23:01.094Z,17
2018-09-13T09:25:01.061Z,18
2018-09-13T09:29:01.152Z,20
2018-09-13T09:30:01.106Z,20
2018-09-13T09:31:01.082Z,19
2018-09-13T09:32:01.083Z,17
2018-09-13T09:33:01.079Z,16
2018-09-13T09:34:01.080Z,15
2018-09-13T09:35:01.168Z,17
2018-09-13T09:37:01.081Z,18
2018-09-13T09:38:01.079Z,17
2018-09-13T09:39:01.082Z,15
2018-09-13T09:40:01.048Z,14
2018-09-13T09:41:01.046Z,16
2018-09-13T09:43:01.051Z,15
2018-09-13T09:44:01.115Z,14
2018-09-13T09:45:01.079Z,14
2018-09-13T09:46:01.056Z,15
2018-09-13T09:47:01.078Z,14
2018-09-13T09:48:01.135Z,15
2018-09-13T09:49:02.103Z,19
2018-09-13T09:52:01.157Z,18
2018-09-13T09:53:01.046Z,17
2018-09-13T09:54:01.077Z,15
2018-09-13T09:57:02.107Z,16
2018-09-13T09:58:01.143Z,17
2018-09-13T09:59:01.084Z,18
2018-09-13T10:00:01.083Z,18
2018-09-13T10:04:01.080Z,19
2018-09-13T10:07:01.108Z,17
2018-09-13T10:10:01.082Z,16
2018-09-13T10:11:01.110Z,17
2018-09-13T10:14:01.085Z,18
2018-09-13T10:15:01.179Z,18
2018-09-13T10:16:01.168Z,17
2018-09-13T10:17:01.080Z,18
2018-09-13T10:18:01.048Z,16
2018-09-13T10:19:01.080Z,13
2018-09-13T10:21:01.081Z,14
2018-09-13T10:22:01.082Z,13
2018-09-13T10:23:01.105Z,14
2018-09-13T10:24:01.107Z,15
2018-09-13T10:25:01.081Z,14
2018-09-13T10:26:01.080Z,13
2018-09-13T10:29:01.104Z,14
2018-09-13T10:30:01.085Z,15
2018-09-13T10:31:01.082Z,16
2018-09-13T10:35:01.076Z,14
2018-09-13T10:36:01.048Z,16
2018-09-13T10:38:01.080Z,17
2018-09-13T10:40:01.115Z,18
2018-09-13T10:41:01.083Z,16
2018-09-13T10:42:01.086Z,17
2018-09-13T10:45:01.106Z,16
2018-09-13T10:46:01.079Z,17
2018-09-13T10:48:01.090Z,16
2018-09-13T10:49:01.049Z,15
2018-09-13T10:52:01.049Z,16
2018-09-13T10:53:06.088Z,17
2018-09-13T10:54:01.082Z,19
2018-09-13T10:57:01.079Z,17
2018-09-13T10:59:01.106Z,15
2018-09-13T11:00:01.113Z,16
2018-09-13T11:01:01.084Z,14
2018-09-13T11:02:01.051Z,15
2018-09-13T11:03:01.076Z,16
2018-09-13T11:04:01.130Z,17
2018-09-13T11:06:01.084Z,20
2018-09-13T11:07:01.082Z,21
2018-09-13T11:09:01.088Z,22
2018-09-13T11:10:01.091Z,20
2018-09-13T11:11:01.279Z,18
2018-09-13T11:13:01.116Z,17
2018-09-13T11:14:01.088Z,16
2018-09-13T11:15:01.082Z,16
2018-09-13T11:16:01.085Z,17
2018-09-13T11:17:01.053Z,16
2018-09-13T11:18:01.085Z,17
2018-09-13T11:20:01.090Z,18
2018-09-13T11:22:01.087Z,19
2018-09-13T11:23:01.112Z,18
2018-09-13T11:24:01.086Z,16
2018-09-13T11:27:02.111Z,15
2018-09-13T11:29:01.098Z,17
2018-09-13T11:30:01.094Z,16
2018-09-13T11:31:01.067Z,17
2018-09-13T11:33:01.123Z,16
2018-09-13T11:35:01.093Z,17
2018-09-13T11:36:01.087Z,16
2018-09-13T11:39:01.138Z,15
2018-09-13T11:40:01.185Z,14
2018-09-13T11:41:01.337Z,15
2018-09-13T11:44:01.129Z,16
2018-09-13T11:45:01.092Z,16
2018-09-13T11:48:01.091Z,17
2018-09-13T11:49:01.120Z,15
2018-09-13T11:50:01.090Z,17
2018-09-13T11:52:01.090Z,18
2018-09-13T11:55:01.093Z,16
2018-09-13T11:56:01.096Z,17
2018-09-13T11:57:01.089Z,18
2018-09-13T11:58:01.089Z,17
2018-09-13T11:59:01.125Z,21
2018-09-13T12:00:01.092Z,21
2018-09-13T12:01:01.100Z,19
2018-09-13T12:02:01.163Z,18
2018-09-13T12:03:01.057Z,17
2018-09-13T12:04:01.092Z,15
2018-09-13T12:07:01.094Z,16
2018-09-13T12:08:01.090Z,17
2018-09-13T12:09:01.096Z,16
2018-09-13T12:12:01.092Z,15
2018-09-13T12:13:01.059Z,16
2018-09-13T12:15:01.092Z,16
2018-09-13T12:16:01.057Z,15
2018-09-13T12:17:01.097Z,16
2018-09-13T12:19:01.124Z,17
2018-09-13T12:22:01.089Z,19
2018-09-13T12:24:01.124Z,17
2018-09-13T12:25:01.092Z,18
2018-09-13T12:27:01.092Z,15
2018-09-13T12:29:01.126Z,17
2018-09-13T12:30:01.091Z,17
2018-09-13T12:31:01.090Z,18
2018-09-13T12:32:01.056Z,20
2018-09-13T12:34:01.093Z,17
2018-09-13T12:35:01.096Z,15
2018-09-13T12:38:01.089Z,16
2018-09-13T12:39:01.123Z,17
2018-09-13T12:40:01.061Z,18
2018-09-13T12:41:01.061Z,19
2018-09-13T12:42:01.057Z,18
2018-09-13T12:44:01.124Z,17
2018-09-13T12:45:01.093Z,17
2018-09-13T12:46:01.090Z,16
2018-09-13T12:47:01.059Z,17
2018-09-13T12:49:01.077Z,15
2018-09-13T12:50:01.224Z,14
2018-09-13T12:53:01.047Z,15
2018-09-13T12:54:01.077Z,16
2018-09-13T12:55:01.076Z,18
2018-09-13T12:56:01.080Z,20
2018-09-13T12:57:01.107Z,19
2018-09-13T12:58:01.076Z,20
2018-09-13T12:59:01.076Z,21
2018-09-13T13:00:01.076Z,20
2018-09-13T13:01:01.081Z,19
2018-09-13T13:03:01.077Z,18
2018-09-13T13:04:01.122Z,16
2018-09-13T13:06:01.046Z,17
2018-09-13T13:08:01.077Z,16
2018-09-13T13:09:01.114Z,17
2018-09-13T13:10:01.045Z,18
2018-09-13T13:11:01.085Z,17
2018-09-13T13:12:01.079Z,16
2018-09-13T13:14:01.110Z,15
2018-09-13T13:15:01.085Z,13
2018-09-13T13:16:01.081Z,14
2018-09-13T13:17:01.181Z,15
2018-09-13T13:19:01.084Z,14
2018-09-13T13:20:01.080Z,15
2018-09-13T13:24:01.107Z,17
2018-09-13T13:26:01.080Z,15
2018-09-13T13:27:01.133Z,18
2018-09-13T13:29:01.108Z,19
2018-09-13T13:30:01.084Z,18
2018-09-13T13:31:01.084Z,20
2018-09-13T13:32:01.048Z,17
2018-09-13T13:33:01.049Z,16
2018-09-13T13:34:01.075Z,15
2018-09-13T13:37:01.081Z,16
2018-09-13T13:38:01.079Z,17
2018-09-13T13:39:01.107Z,15
2018-09-13T13:40:01.085Z,14
2018-09-13T13:42:01.081Z,15
2018-09-13T13:44:01.166Z,16
2018-09-13T13:45:01.081Z,19
2018-09-13T13:48:01.110Z,20
2018-09-13T13:49:02.109Z,19
2018-09-13T13:50:01.081Z,18
2018-09-13T13:52:01.050Z,17
2018-09-13T13:53:01.107Z,16
2018-09-13T13:54:01.081Z,17
2018-09-13T13:56:01.084Z,16
2018-09-13T13:58:01.121Z,17
2018-09-13T13:59:01.082Z,18
2018-09-13T14:00:01.145Z,16
2018-09-13T14:03:01.111Z,15
2018-09-13T14:04:01.084Z,14
2018-09-13T14:06:01.083Z,13
2018-09-13T14:07:01.081Z,14
2018-09-13T14:08:01.081Z,15
2018-09-13T14:10:01.215Z,16
2018-09-13T14:11:01.087Z,17
2018-09-13T14:12:01.082Z,15
2018-09-13T14:13:01.083Z,14
2018-09-13T14:15:01.084Z,15
2018-09-13T14:17:02.107Z,16
2018-09-13T14:18:01.086Z,17
2018-09-13T14:20:01.082Z,16
2018-09-13T14:21:01.076Z,15
2018-09-13T14:22:01.081Z,14
2018-09-13T14:23:01.083Z,13
2018-09-13T14:25:01.052Z,14
2018-09-13T14:26:01.087Z,15
2018-09-13T14:27:01.081Z,17
2018-09-13T14:28:01.084Z,20
2018-09-13T14:30:01.085Z,20
2018-09-13T14:31:01.052Z,18
2018-09-13T14:32:01.084Z,19
2018-09-13T14:33:01.054Z,18
2018-09-13T14:36:01.084Z,20
2018-09-13T14:37:01.139Z,19
2018-09-13T14:38:01.087Z,18
2018-09-13T14:41:01.054Z,16
2018-09-13T14:42:01.124Z,14
2018-09-13T14:45:01.090Z,14
2018-09-13T14:46:01.170Z,15
2018-09-13T14:47:01.144Z,14
2018-09-13T14:48:01.094Z,15
2018-09-13T14:50:01.090Z,16
2018-09-13T14:53:01.128Z,17
2018-09-13T14:54:01.091Z,16
2018-09-13T14:56:01.099Z,17
2018-09-13T14:57:01.156Z,18
2018-09-13T14:59:01.114Z,20
2018-09-13T15:00:01.091Z,20
2018-09-13T15:01:01.088Z,21
2018-09-13T15:02:01.088Z,22
2018-09-13T15:04:01.119Z,21
2018-09-13T15:05:01.055Z,20
2018-09-13T15:06:01.087Z,18
2018-09-13T15:08:02.117Z,17
2018-09-13T15:09:01.087Z,16
2018-09-13T15:10:01.089Z,17
2018-09-13T15:12:01.086Z,16
2018-09-13T15:13:01.088Z,15
2018-09-13T15:15:01.121Z,15
2018-09-13T15:16:01.088Z,16
2018-09-13T15:17:01.095Z,14
2018-09-13T15:18:01.088Z,16
2018-09-13T15:19:01.130Z,17
2018-09-13T15:20:01.123Z,16
2018-09-13T15:21:01.088Z,17
2018-09-13T15:22:01.091Z,18
2018-09-13T15:25:01.122Z,16
2018-09-13T15:26:01.088Z,15
2018-09-13T15:28:01.102Z,13
2018-09-13T15:30:01.127Z,14
2018-09-13T15:33:01.088Z,16
2018-09-13T15:35:01.127Z,17
2018-09-13T15:37:01.141Z,16
2018-09-13T15:38:01.094Z,15
2018-09-13T15:39:01.094Z,16
2018-09-13T15:41:01.103Z,18
2018-09-13T15:42:01.094Z,19
2018-09-13T15:44:01.098Z,18
2018-09-13T15:45:01.146Z,18
2018-09-13T15:46:01.103Z,17
2018-09-13T15:47:01.094Z,18
2018-09-13T15:48:01.100Z,17
2018-09-13T15:49:01.094Z,18
2018-09-13T15:50:01.135Z,16
2018-09-13T15:53:01.092Z,17
2018-09-13T15:55:01.112Z,18
2018-09-13T15:56:01.093Z,19
2018-09-13T15:58:03.077Z,17
2018-09-13T15:59:01.090Z,19
2018-09-13T16:00:01.123Z,21
2018-09-13T16:01:01.094Z,20
2018-09-13T16:02:06.099Z,18
2018-09-13T16:03:01.063Z,19
2018-09-13T16:04:01.094Z,17
2018-09-13T16:05:01.070Z,14
2018-09-13T16:07:06.106Z,15
2018-09-13T16:09:01.079Z,14
2018-09-13T16:12:01.083Z,15
2018-09-13T16:14:01.082Z,16
2018-09-13T16:15:02.118Z,15
2018-09-13T16:17:01.086Z,16
2018-09-13T16:18:01.083Z,15
2018-09-13T16:21:01.092Z,16
2018-09-13T16:22:01.084Z,14
2018-09-13T16:23:01.090Z,15
2018-09-13T16:24:01.088Z,14
2018-09-13T16:25:01.084Z,16
2018-09-13T16:26:01.161Z,14
2018-09-13T16:27:01.126Z,15
2018-09-13T16:30:01.088Z,15
2018-09-13T16:31:01.115Z,16
2018-09-13T16:32:01.086Z,17
2018-09-13T16:35:01.177Z,16
2018-09-13T16:36:01.088Z,18
2018-09-13T16:37:01.163Z,17
2018-09-13T16:38:01.054Z,16
2018-09-13T16:39:06.061Z,15
2018-09-13T16:40:01.088Z,16
2018-09-13T16:41:01.054Z,15
2018-09-13T16:42:01.085Z,14
2018-09-13T16:44:01.115Z,17
2018-09-13T16:45:01.102Z,15
2018-09-13T16:46:01.085Z,14
2018-09-13T16:47:01.089Z,16
2018-09-13T16:54:06.090Z,15
2018-09-13T16:55:01.085Z,16
2018-09-13T16:56:01.084Z,18
2018-09-13T16:57:01.088Z,17
2018-09-13T16:58:01.056Z,18
2018-09-13T16:59:06.057Z,20
2018-09-13T17:00:01.084Z,19
2018-09-13T17:01:01.084Z,16
2018-09-13T17:03:01.084Z,15
2018-09-13T17:04:06.086Z,14
2018-09-13T17:05:01.085Z,17
2018-09-13T17:06:01.085Z,18
2018-09-13T17:07:01.206Z,17
2018-09-13T17:09:01.093Z,16
2018-09-13T17:10:01.066Z,15
2018-09-13T17:12:01.100Z,17
2018-09-13T17:13:01.092Z,18
2018-09-13T17:15:01.096Z,17
2018-09-13T17:16:06.091Z,15
2018-09-13T17:17:01.091Z,14
2018-09-13T17:18:01.090Z,16
2018-09-13T17:20:01.094Z,17
2018-09-13T17:22:06.061Z,18
2018-09-13T17:23:01.087Z,16
2018-09-13T17:24:01.105Z,15
2018-09-13T17:27:02.203Z,14
2018-09-13T17:28:01.059Z,15
2018-09-13T17:30:01.091Z,15
2018-09-13T17:31:01.064Z,17
2018-09-13T17:32:01.091Z,18
2018-09-13T17:33:01.089Z,17
2018-09-13T17:34:01.119Z,16
2018-09-13T17:35:01.091Z,15
2018-09-13T17:36:01.093Z,13
2018-09-13T17:37:06.096Z,14
2018-09-13T17:38:01.091Z,16
2018-09-13T17:39:01.064Z,17
2018-09-13T17:40:01.091Z,19
2018-09-13T17:41:01.095Z,20
2018-09-13T17:42:06.099Z,19
2018-09-13T17:43:01.098Z,17
2018-09-13T17:44:01.067Z,16
2018-09-13T17:48:02.148Z,17
2018-09-13T17:50:01.044Z,18
2018-09-13T17:51:01.075Z,15
2018-09-13T17:52:01.077Z,14
2018-09-13T17:53:01.045Z,13
2018-09-13T17:54:01.105Z,15
2018-09-13T17:56:01.074Z,16
2018-09-13T17:57:01.083Z,18
2018-09-13T17:58:01.074Z,19
2018-09-13T17:59:01.102Z,18
2018-09-13T18:00:01.078Z,17
2018-09-13T18:01:01.076Z,20
2018-09-13T18:03:01.042Z,19
2018-09-13T18:04:01.076Z,20
2018-09-13T18:06:01.075Z,18
2018-09-13T18:07:01.078Z,17
2018-09-13T18:08:01.080Z,18
2018-09-13T18:11:01.110Z,19
2018-09-13T18:12:01.048Z,20
2018-09-13T18:13:01.079Z,18
2018-09-13T18:14:01.080Z,17
2018-09-13T18:15:01.086Z,17
2018-09-13T18:18:01.077Z,18
2018-09-13T18:19:01.045Z,20
2018-09-13T18:20:01.080Z,22
2018-09-13T18:21:01.079Z,21
2018-09-13T18:22:01.079Z,19
2018-09-13T18:24:01.091Z,16
2018-09-13T18:25:01.078Z,14
2018-09-13T18:26:01.079Z,15
2018-09-13T18:28:01.078Z,16
2018-09-13T18:29:01.046Z,17
2018-09-13T18:30:01.047Z,17
2018-09-13T18:31:01.080Z,16
2018-09-13T18:33:01.081Z,15
2018-09-13T18:36:01.054Z,14
2018-09-13T18:40:02.103Z,15
2018-09-13T18:42:01.082Z,16
2018-09-13T18:43:01.079Z,15
2018-09-13T18:44:01.083Z,14
2018-09-13T18:45:01.083Z,15
2018-09-13T18:46:02.105Z,16
2018-09-13T18:48:01.078Z,18
2018-09-13T18:49:01.089Z,20
2018-09-13T18:50:01.124Z,18
2018-09-13T18:52:01.079Z,17
2018-09-13T18:53:01.130Z,15
2018-09-13T18:55:01.105Z,16
2018-09-13T18:56:01.050Z,15
2018-09-13T18:57:01.080Z,16
2018-09-13T18:58:01.085Z,18
2018-09-13T18:59:01.082Z,16
2018-09-13T19:00:01.109Z,16
2018-09-13T19:01:01.089Z,17
2018-09-13T19:03:01.083Z,16
2018-09-13T19:06:01.128Z,15
2018-09-13T19:07:01.087Z,16
2018-09-13T19:09:01.084Z,19
2018-09-13T19:10:01.086Z,21
2018-09-13T19:12:01.111Z,22
2018-09-13T19:14:01.090Z,19
2018-09-13T19:15:01.096Z,17
2018-09-13T19:17:01.189Z,15
2018-09-13T19:20:01.090Z,16
2018-09-13T19:22:01.112Z,17
2018-09-13T19:23:01.083Z,16
2018-09-13T19:25:01.085Z,15
2018-09-13T19:26:01.085Z,16
2018-09-13T19:28:01.111Z,17
2018-09-13T19:30:01.090Z,18
2018-09-13T19:32:01.112Z,17
2018-09-13T19:34:01.086Z,16
2018-09-13T19:37:01.121Z,17
2018-09-13T19:38:01.089Z,18
2018-09-13T19:40:01.090Z,19
2018-09-13T19:41:01.090Z,18
2018-09-13T19:42:01.118Z,16
2018-09-13T19:43:01.059Z,14
2018-09-13T19:44:01.113Z,15
2018-09-13T19:45:01.093Z,14
2018-09-13T19:48:01.091Z,17
2018-09-13T19:51:01.226Z,16
2018-09-13T19:53:01.091Z,14
2018-09-13T19:54:01.092Z,15
2018-09-13T19:56:01.108Z,13
2018-09-13T19:58:01.090Z,14
2018-09-13T19:59:01.060Z,13
2018-09-13T20:00:01.092Z,13
2018-09-13T20:01:02.157Z,17
2018-09-13T20:02:01.093Z,16
2018-09-13T20:07:01.120Z,17
2018-09-13T20:08:01.092Z,16
2018-09-13T20:10:01.096Z,17
2018-09-13T20:11:01.090Z,16
2018-09-13T20:13:02.118Z,17
2018-09-13T20:14:01.110Z,16
2018-09-13T20:15:01.094Z,16
2018-09-13T20:16:01.093Z,15
2018-09-13T20:18:01.157Z,16
2018-09-13T20:19:01.093Z,17
2018-09-13T20:20:01.092Z,18
2018-09-13T20:22:01.131Z,19
2018-09-13T20:23:01.102Z,18
2018-09-13T20:24:02.117Z,17
2018-09-13T20:26:01.091Z,18
2018-09-13T20:27:01.134Z,17